Tiempo atmosférico en la estación meteorológica de Alicante/Alacant, Alacant/Alicante (81 m.)



Fecha
DESCASC
Temp. máxima en grados centígrados (hora)
DESCASC
Temp. mínima en grados centígrados (hora)
DESCASC
Temp. media en grados centígrados
DESCASC
Racha de viento máxima en m/sg (hora)
DESCASC
Velocidad máxima media en intervalos de 10 minutos(hora)
DESCASC
Precipitaciones diarias en mm
DESCASC
Precipitaciones de 00:00 a 06:00 en mm
DESCASC
Precipitaciones de 06:00 a 12:00 en mm
DESCASC
Precipitaciones de 12:00 a 18:00 en mm
DESCASC
Precipitaciones de 18:00 a 24:00 en mm
DESCASC
21-02-2019 16.8 (14:00) 5.4 (06:50) 11.1 5.28 (13:50) 3.06 (13:50) 0 0 0 0 0
20-02-2019 17.3 (13:00) 5.7 (06:40) 11.5 6.67 (14:00) 3.33 (13:10) 0 0 0 0 0
19-02-2019 16.7 (13:00) 4.5 (06:40) 10.6 8.06 (16:30) 4.72 (15:50) 0 0 0 0 0
18-02-2019 17.6 (15:00) 4.3 (06:50) 11 8.89 (12:30) 4.72 (12:30) 0 0 0 0 0
17-02-2019 16.3 (15:30) 4.8 (00:00) 10.5 7.22 (16:20) 4.17 (13:10) 0 0 0 0 0
16-02-2019 17.9 (14:40) 4 (00:00) 10.9 8.06 (15:00) 4.44 (15:40) 0 0 0 0 0
15-02-2019 16.2 (14:10) 5.7 (00:00) 11 8.06 (17:00) 4.17 (17:00) 0 0 0 0 0
14-02-2019 15.9 (14:30) 7.4 (00:00) 11.6 7.78 (13:00) 4.17 (16:30) 0 0 0 0 0
13-02-2019 15.7 (14:20) 4.5 (00:00) 10.1 6.11 (16:00) 3.33 (15:40) 0 0 0 0 0
12-02-2019 16.5 (14:30) 5 (00:00) 10.8 5.83 (13:10) 3.61 (11:20) 0 0 0 0 0
11-02-2019 17.2 (14:40) 9.9 (00:00) 13.6 10 (10:40) 5.83 (10:50) 0 0 0 0 0
10-02-2019 19.1 (12:30) 5.9 (00:00) 12.5 12.22 (13:10) 5 (12:40) 0 0 0 0 0
09-02-2019 22.1 (13:40) 5.3 (00:00) 13.7 5 (14:50) 3.33 (14:50) 0 0 0 0 0
08-02-2019 18 (14:30) 5.1 (00:00) 11.5 4.72 (14:50) 2.78 (14:50) 0 0 0 0 0
07-02-2019 19.3 (13:40) 7.8 (00:00) 13.5 5.83 (15:30) 3.61 (14:20) 0 0 0 0 0
06-02-2019 19.4 (13:10) 5.8 (00:00) 12.6 4.44 (15:20) 2.78 (14:30) 0 0 0 0 0
05-02-2019 19.2 (12:50) 3.4 (00:00) 11.3 5 (14:20) 3.06 (14:10) 0 0 0 0 0
04-02-2019 15.9 (14:00) 3.2 (00:00) 9.5 7.22 (05:30) 3.61 (05:30) 0 0 0 0 0
03-02-2019 14.6 (15:00) 5.9 (00:00) 10.3 16.67 (03:50) 8.06 (00:50) 0 0 0 0 0
02-02-2019 15.4 (13:20) 9.3 (00:00) 12.3 17.22 (23:10) 7.22 (23:10) 0 0 0 0 0
01-02-2019 20.2 (15:20) 11.1 (00:00) 15.7 11.67 (14:00) 5.28 (14:20) 0.6 0 0.2 0.4 0
31-01-2019 21.8 (16:20) 11.5 (00:00) 16.6 12.78 (18:20) 5.28 (16:50) 0 0 0 0 0
30-01-2019 17.5 (15:40) 12.6 (00:00) 15.1 11.11 (00:10) 5 (00:10) 0 0 0 0 0
29-01-2019 18.5 (15:20) 10.4 (00:00) 14.4 14.72 (18:10) 6.94 (18:30) 0 0 0 0 0
28-01-2019 19.7 (15:30) 9.1 (00:00) 14.4 14.17 (15:50) 6.11 (10:40) 0 0 0 0 0
27-01-2019 19.7 (13:20) 9.2 (00:00) 14.5 14.17 (13:30) 6.11 (18:50) 0 0 0 0 0
26-01-2019 19.8 (14:30) 7.6 (00:00) 13.7 7.22 (16:40) 4.17 (16:30) 0 0 0 0 0
25-01-2019 21.9 (16:10) 11.2 (00:00) 16.5 10.56 (01:30) 4.44 (14:20) 0 0 0 0 0
24-01-2019 16.3 (00:00) 13.6 (00:00) 14.9 13.33 (07:20) 5.56 (02:00) 0 0 0 0 0

Gráficas

Temp. máximas Temp. mínimas Temp. medias Precipitaciones Rachas de viento máximas Velocidades máximas media en intervalos de 10 minutos

Datos horarios

Fecha y hora oficial Temperatura (ºC) Velocidad del viento (km/h) Dirección del viento Racha (km/h) Dirección de racha Precipitación (mm) Presión (hPa) Tendencia (hPa) Humedad (%)
2019-02-22 23:00:00 10.2 4 Noroeste 10 Noroeste 0 1018.4 -0.8 75
2019-02-22 22:00:00 10.4 4 Oeste 10 Oeste 0 1018.7 -0.1 76
2019-02-22 21:00:00 11 4 Oeste 8 Oeste 0 1019 0.2 84
2019-02-22 20:00:00 12 0 Calma 5 Sudeste 0 1019.2 0.1 85
2019-02-22 19:00:00 13.7 4 Sudeste 10 Sur 0 1018.8 -0.3 76
2019-02-22 18:00:00 15.1 5 Sur 12 Sudeste 0 1018.8 -0.5 73
2019-02-22 17:00:00 16.6 8 Sudeste 17 Sudeste 0 1019.1 -0.5 66
2019-02-22 16:00:00 17.5 9 Sudeste 19 Sudeste 0 1019.1 -1.4 56
2019-02-22 15:00:00 17.9 11 Sudeste 19 Sudeste 0 1019.3 -2.4 53
2019-02-22 14:00:00 18.2 10 Sudeste 17 Sudeste 0 1019.6 -2.5 48
2019-02-22 13:00:00 17.4 9 Sudeste 16 Sudeste 0 1020.5 -1.6 52
2019-02-22 12:00:00 16.9 8 Sur 13 Sudoeste 0 1021.7 -0.3 45
2019-02-22 11:00:00 15 5 Sur 8 Sur 0 1022.1 0.4 54
2019-02-22 10:00:00 11.7 0 Calma 5 Oeste 0 1022.1 0.3 63
2019-02-22 09:00:00 5.5 2 Noroeste 7 Noroeste 0 1022 0.3 84
2019-02-22 08:00:00 4 3 Oeste 9 Noroeste 0 1021.7 0 89
2019-02-22 07:00:00 4.3 3 Noroeste 9 Noroeste 0 1021.8 -0.1 89
2019-02-22 06:00:00 4.1 3 Oeste 6 Noroeste 0 1021.7 -0.3 92
2019-02-22 05:00:00 4.8 3 Noroeste 7 Sudoeste 0 1021.7 -0.5 91
2019-02-22 04:00:00 5.2 4 Norte 6 Norte 0 1021.9 -0.4 93
2019-02-22 03:00:00 5.7 2 Noroeste 6 Noroeste 0 1022 -0.2 91
2019-02-22 02:00:00 6.3 4 Norte 6 Norte 0 1022.2 -0.1 91
2019-02-22 01:00:00 6.9 3 Noroeste 6 Noroeste 0 1022.3 0.1 88
2019-02-22 00:00:00 7.6 2 Noroeste 8 Noroeste 0 1022.2 0.6 86
2019-02-21 23:00:00 8.4 3 Oeste 7 Oeste 0 1022.3 1.1 84
2019-02-21 22:00:00 9.2 3 Noroeste 5 Norte 0 1022.2 1.6 84
2019-02-21 21:00:00 10.3 4 Norte 5 Norte 0 1021.6 1.4 83
2019-02-21 20:00:00 11.1 0 Calma 6 Este 0 1021.2 1.1 81
2019-02-21 19:00:00 12.4 4 Sudeste 11 Sudeste 0 1020.6 0.6 75
2019-02-21 18:00:00 13.6 7 Sudeste 13 Sudeste 0 1020.2 0.4 69
2019-02-21 17:00:00 14.9 9 Sudeste 18 Sur 0 1020.1 0.2 63
2019-02-21 16:00:00 16.1 8 Sudeste 18 Sudeste 0 1020 -0.3 55
2019-02-21 15:00:00 16.3 10 Sudeste 17 Sudeste 0 1019.8 -0.7 57
2019-02-21 14:00:00 16.8 10 Sur 19 Sudeste 0 1019.9 -0.6 53
2019-02-21 13:00:00 16 9 Sudeste 15 Sudeste 0 1020.3 0.1 56
2019-02-21 12:00:00 14.6 5 Sudeste 9 Nordeste 0 1020.5 0.6 61
2019-02-21 11:00:00 14.2 4 Noroeste 9 Norte 0 1020.5 1.4 63
2019-02-21 10:00:00 11.6 4 Noroeste 8 Norte 0 1020.2 1.8 71
2019-02-21 09:00:00 7.8 5 Noroeste 8 Noroeste 0 1019.9 1.7 82
2019-02-21 08:00:00 6.1 4 Noroeste 7 Noroeste 0 1019.1 1.2 85
2019-02-21 07:00:00 5.4 3 Noroeste 5 Noroeste 0 1018.4 0.6 88
2019-02-21 06:00:00 5.9 3 Noroeste 7 Noroeste 0 1018.2 0.2 87
2019-02-21 05:00:00 6.6 5 Norte 7 Norte 0 1017.9 -0.1 86
2019-02-21 04:00:00 6.9 4 Noroeste 6 Noroeste 0 1017.8 -0.1 87
2019-02-21 03:00:00 7.8 4 Norte 6 Norte 0 1018 0.2 86
2019-02-21 02:00:00 8.9 2 Noroeste 5 Oeste 0 1018 0.1 83
2019-02-21 01:00:00 10.3 2 Noroeste 9 Oeste 0 1017.9 0.4 84
2019-02-21 00:00:00 11 2 Noroeste 6 Noroeste 0 1017.8 0.9 80
2019-02-20 23:00:00 11.8 2 Noroeste 6 Noroeste 0 1017.9 1.5 78
2019-02-20 22:00:00 11.8 0 Calma 5 Norte 0 1017.5 1.7 79
2019-02-20 21:00:00 11.6 3 Noroeste 7 Nordeste 0 1016.9 1.8 80
2019-02-20 20:00:00 11.7 5 Este 9 Este 0 1016.4 1.2 80
2019-02-20 19:00:00 12.4 5 Este 14 Nordeste 0 1015.8 0.5 76
2019-02-20 18:00:00 13.5 9 Este 17 Sur 0 1015.1 -0.2 69
2019-02-20 17:00:00 15 10 Sudeste 17 Sudeste 0 1015.2 -0.2 63
2019-02-20 16:00:00 15.3 10 Sudeste 22 Sudeste 0 1015.3 -0.4 59
2019-02-20 15:00:00 15.7 10 Sudeste 19 Sudeste 0 1015.3 -0.6 53
2019-02-20 14:00:00 16.2 12 Sudeste 24 Sudeste 0 1015.4 -0.1 51
2019-02-20 13:00:00 17.1 12 Sudeste 19 Sudeste 0 1015.7 0.5 49
2019-02-20 12:00:00 15.8 6 Sur 14 Sur 0 1015.9 1.2 51
2019-02-20 11:00:00 14.8 4 Sudoeste 10 Oeste 0 1015.5 1.6 55
2019-02-20 10:00:00 11.6 4 Noroeste 9 Noroeste 0 1015.2 2 68
2019-02-20 09:00:00 7.4 3 Noroeste 11 Noroeste 0 1014.7 1.6 82
2019-02-20 08:00:00 6.1 5 Noroeste 10 Noroeste 0 1013.9 0.9 85
2019-02-20 07:00:00 5.8 4 Noroeste 7 Noroeste 0 1013.2 0.1 88
2019-02-20 06:00:00 6 4 Noroeste 5 Noroeste 0 1013.1 -0.2 86
2019-02-20 05:00:00 7 4 Noroeste 6 Norte 0 1013 -0.3 85
2019-02-20 04:00:00 8.3 2 Noroeste 7 Noroeste 0 1013.1 -0.1 81
2019-02-20 03:00:00 9.3 2 Noroeste 10 Norte 0 1013.3 0.1 83
2019-02-20 02:00:00 9.1 4 Norte 9 Norte 0 1013.3 0.2 84
2019-02-20 01:00:00 9.4 3 Norte 6 Noroeste 0 1013.2 0.6 84
2019-02-20 00:00:00 8.8 3 Noroeste 5 Nordeste 0 1013.2 1 86
2019-02-19 23:00:00 9.8 3 Norte 5 Noroeste 0 1013.1 1.3 83
2019-02-19 22:00:00 11.5 4 Norte 21 Nordeste 0 1012.6 1.6 82
2019-02-19 21:00:00 12.1 9 Este 19 Este 0 1012.2 1.8 80
2019-02-19 20:00:00 12.4 10 Este 22 Este 0 1011.8 1.3 78
2019-02-19 19:00:00 12.7 11 Este 23 Este 0 1011 0.3 74
2019-02-19 18:00:00 13.8 11 Este 26 Este 0 1010.4 -0.4 71
2019-02-19 17:00:00 15.1 12 Este 29 Este 0 1010.5 -0.5 63
2019-02-19 16:00:00 15.6 13 Este 28 Este 0 1010.7 -0.9 60
2019-02-19 15:00:00 16.1 13 Este 25 Sudeste 0 1010.8 -1.1 57
2019-02-19 14:00:00 16.3 10 Este 23 Este 0 1011 -0.8 54
2019-02-19 13:00:00 16.5 8 Este 18 Nordeste 0 1011.6 -0.2 47
2019-02-19 12:00:00 16.1 9 Sudeste 20 Sudeste 0 1011.9 0.4 42
2019-02-19 11:00:00 15.4 3 Sudeste 8 Este 0 1011.8 0.9 43
2019-02-19 10:00:00 11.6 3 Oeste 8 Noroeste 0 1011.8 1.3 55
2019-02-19 09:00:00 6.4 4 Noroeste 11 Noroeste 0 1011.5 1.1 71
2019-02-19 08:00:00 4.9 6 Noroeste 15 Noroeste 0 1010.9 0.4 74
2019-02-19 07:00:00 4.6 4 Noroeste 8 Noroeste 0 1010.5 -0.2 72
2019-02-19 06:00:00 4.9 4 Noroeste 9 Noroeste 0 1010.4 -0.4 70
2019-02-19 05:00:00 4.9 3 Noroeste 7 Noroeste 0 1010.5 -0.4 72
2019-02-19 04:00:00 5.4 4 Noroeste 9 Noroeste 0 1010.7 -0.2 69
2019-02-19 03:00:00 5.6 4 Noroeste 7 Norte 0 1010.8 -0.3 73
2019-02-19 02:00:00 5.4 4 Oeste 6 Noroeste 0 1010.9 -0.3 71
2019-02-19 01:00:00 6.2 3 Noroeste 6 Norte 0 1010.9 -0.3 76
2019-02-19 00:00:00 7.1 4 Noroeste 8 Norte 0 1011.1 0.3 84
2019-02-18 23:00:00 8.5 6 Nordeste 8 Nordeste 0 1011.2 0.8 77
2019-02-18 22:00:00 9.7 3 Noroeste 9 Norte 0 1011.2 1.3 86
2019-02-18 21:00:00 11.7 7 Nordeste 14 Nordeste 0 1010.8 1.3 85
2019-02-18 20:00:00 12 8 Nordeste 15 Este 0 1010.4 0.7 85
2019-02-18 19:00:00 12.7 8 Nordeste 21 Este 0 1009.9 -0.1 82
2019-02-18 18:00:00 13.9 11 Este 23 Este 0 1009.5 -0.8 76
2019-02-18 17:00:00 15.6 12 Este 26 Nordeste 0 1009.7 -1.2 66
2019-02-18 16:00:00 17 13 Este 26 Nordeste 0 1010 -1.6 49
2019-02-18 15:00:00 17.6 12 Este 28 Este 0 1010.3 -1.8 43
2019-02-18 14:00:00 17 10 Este 30 Este 0 1010.9 -1.2 47
2019-02-18 13:00:00 16.4 13 Este 32 Este 0 1011.6 -0.6 48
2019-02-18 12:00:00 16.4 11 Este 24 Este 0 1012.1 0 47
2019-02-18 11:00:00 15.3 6 Sudeste 14 Sudeste 0 1012.1 0.5 46
2019-02-18 10:00:00 11.7 2 Oeste 6 Noroeste 0 1012.2 0.3 59
2019-02-18 09:00:00 6 3 Noroeste 10 Norte 0 1012.1 0.1 75
2019-02-18 08:00:00 4.9 5 Norte 9 Norte 0 1011.6 -0.6 78
2019-02-18 07:00:00 4.3 3 Noroeste 8 Norte 0 1011.9 -0.7 82
2019-02-18 06:00:00 4.6 4 Noroeste 7 Noroeste 0 1012 -1.2 83
2019-02-18 05:00:00 5.2 4 Noroeste 10 Norte 0 1012.2 -1.3 80
2019-02-18 04:00:00 5.5 3 Noroeste 8 Norte 0 1012.6 -1.1 86
2019-02-18 03:00:00 5.9 4 Noroeste 7 Noroeste 0 1013.2 -0.8 87
2019-02-18 02:00:00 6.4 4 Oeste 8 Noroeste 0 1013.5 -0.8 85
2019-02-18 01:00:00 7.7 2 Noroeste 9 Nordeste 0 1013.7 -0.8 84
2019-02-18 00:00:00 8.4 8 Nordeste 17 Nordeste 0 1014 -0.3 83
2019-02-17 23:00:00 9.3 8 Nordeste 13 Nordeste 0 1014.3 0.2 84
2019-02-17 22:00:00 9.6 6 Norte 9 Norte 0 1014.5 0.7 84
2019-02-17 21:00:00 11.1 5 Nordeste 15 Nordeste 0 1014.3 0.7 84
2019-02-17 20:00:00 12 10 Nordeste 16 Nordeste 0 1014.1 0.3 84
2019-02-17 19:00:00 12.6 9 Este 23 Nordeste 0 1013.8 -0.5 79
2019-02-17 18:00:00 13.6 11 Este 23 Este 0 1013.6 -1.2 75
2019-02-17 17:00:00 14.4 14 Este 26 Nordeste 0 1013.8 -1.7 69
2019-02-17 16:00:00 16.3 13 Este 24 Este 0 1014.3 -2 61
2019-02-17 15:00:00 16.1 12 Este 21 Este 0 1014.8 -2 60
2019-02-17 14:00:00 15.7 14 Nordeste 26 Nordeste 0 1015.5 -1.4 61
2019-02-17 13:00:00 15.3 13 Este 23 Este 0 1016.3 -0.6 63
2019-02-17 12:00:00 14.1 9 Este 24 Nordeste 0 1016.8 0.2 66
2019-02-17 11:00:00 13.7 7 Este 14 Nordeste 0 1016.9 0.6 58
2019-02-17 10:00:00 9.4 3 Noroeste 8 Oeste 0 1016.9 0.9 59
2019-02-17 09:00:00 6.4 3 Oeste 9 Noroeste 0 1016.6 0.4 65
2019-02-17 08:00:00 5.2 3 Oeste 9 Oeste 0 1016.3 0.2 64
2019-02-17 07:00:00 4.9 4 Noroeste 8 Oeste 0 1016 -0.4 59
2019-02-17 06:00:00 5 3 Noroeste 10 Oeste 0 1016.2 -0.7 57
2019-02-17 05:00:00 5.5 5 Noroeste 10 Noroeste 0 1016.1 -1.2 62
2019-02-17 04:00:00 5.5 5 Oeste 12 Noroeste 0 1016.4 -0.9 51
2019-02-17 03:00:00 5.8 5 Noroeste 12 Oeste 0 1016.9 -0.3 62
2019-02-17 02:00:00 5.3 4 Oeste 9 Oeste 0 1017.3 -0.1 67
2019-02-17 01:00:00 5.3 3 Oeste 7 Oeste 0 1017.3 -0.4 62
2019-02-17 00:00:00 5.8 3 Sudoeste 5 Oeste 0 1017.2 -0.1 63
2019-02-16 23:00:00 7.3 3 Oeste 6 Noroeste 0 1017.4 0.3 61
2019-02-16 22:00:00 9.1 5 Noroeste 15 Nordeste 0 1017.7 0.9 58
2019-02-16 21:00:00 11.5 7 Nordeste 16 Este 0 1017.3 0.6 74
2019-02-16 20:00:00 12.5 10 Este 21 Nordeste 0 1017.1 0.2 67
2019-02-16 19:00:00 13.1 11 Este 26 Este 0 1016.8 -0.5 59
2019-02-16 18:00:00 14.8 11 Nordeste 24 Este 0 1016.7 -1.1 45
2019-02-16 17:00:00 16.6 9 Este 26 Este 0 1016.9 -1.5 32
2019-02-16 16:00:00 17.4 14 Este 28 Este 0 1017.3 -1.8 27
2019-02-16 15:00:00 17.6 12 Este 29 Este 0 1017.8 -1.9 26
2019-02-16 14:00:00 17.5 10 Este 23 Este 0 1018.4 -1.2 34
2019-02-16 13:00:00 16.8 9 Este 22 Este 0 1019.1 -0.2 37
2019-02-16 12:00:00 15.8 5 Sudeste 13 Sudeste 0 1019.7 0.7 47
2019-02-16 11:00:00 14.2 3 Sur 10 Oeste 0 1019.6 1.1 49
2019-02-16 10:00:00 10.6 5 Oeste 13 Noroeste 0 1019.3 1.2 66
2019-02-16 09:00:00 5.5 4 Noroeste 8 Oeste 0 1019 1 81
2019-02-16 08:00:00 4.1 3 Noroeste 6 Noroeste 0 1018.5 0.7 85
2019-02-16 07:00:00 4.5 4 Noroeste 8 Noroeste 0 1018.1 0 85
2019-02-16 06:00:00 5.2 3 Noroeste 8 Noroeste 0 1018 -0.2 87
2019-02-16 05:00:00 6.2 4 Oeste 9 Oeste 0 1017.8 -0.5 88
2019-02-16 04:00:00 5.8 4 Noroeste 9 Oeste 0 1018.1 -0.3 91
2019-02-16 03:00:00 5.8 3 Noroeste 5 Noroeste 0 1018.2 -0.5 90
2019-02-16 02:00:00 6.6 4 Noroeste 5 Oeste 0 1018.3 -0.7 92
2019-02-16 01:00:00 7.5 4 Oeste 6 Noroeste 0 1018.4 -0.3 91
2019-02-16 00:00:00 8.4 3 Noroeste 6 Noroeste 0 1018.7 0.2 90
2019-02-15 23:00:00 9.1 3 Norte 6 Norte 0 1019 0.7 87
2019-02-15 22:00:00 10.5 6 Nordeste 22 Nordeste 0 1018.7 0.6 83
2019-02-15 21:00:00 11.5 12 Este 24 Nordeste 0 1018.5 0.8 80
2019-02-15 20:00:00 11.9 10 Este 21 Nordeste 0 1018.3 0.5 79
2019-02-15 19:00:00 12.2 11 Este 26 Este 0 1018.1 0.1 80
2019-02-15 18:00:00 13.1 12 Este 27 Este 0 1017.7 -0.7 76
2019-02-15 17:00:00 14.4 15 Este 29 Este 0 1017.8 -1.2 71
2019-02-15 16:00:00 15.4 13 Este 29 Este 0 1018 -2 68
2019-02-15 15:00:00 16.2 9 Este 21 Este 0 1018.4 -2.4 62
2019-02-15 14:00:00 16 10 Este 22 Este 0 1019 -1.9 59
2019-02-15 13:00:00 15.6 8 Este 18 Nordeste 0 1020 -0.9 59
2019-02-15 12:00:00 15.4 6 Sudeste 15 Sudeste 0 1020.8 0.1 55
2019-02-15 11:00:00 13.7 4 Nordeste 12 Nordeste 0 1020.9 0.6 60
2019-02-15 10:00:00 11.2 4 Noroeste 8 Norte 0 1020.9 0.9 72
2019-02-15 09:00:00 7.1 4 Norte 11 Noroeste 0 1020.7 0.7 84
2019-02-15 08:00:00 5.7 3 Noroeste 7 Noroeste 0 1020.3 0 88
2019-02-15 07:00:00 6.4 4 Norte 9 Norte 0 1020 -0.5 85
2019-02-15 06:00:00 7.3 5 Norte 9 Norte 0 1020 -1 82
2019-02-15 05:00:00 7.5 6 Norte 10 Nordeste 0 1020.3 -1 82
2019-02-15 04:00:00 7.6 3 Noroeste 7 Norte 0 1020.5 -1 82
2019-02-15 03:00:00 7.8 4 Noroeste 7 Nordeste 0 1021 -0.7 82
2019-02-15 02:00:00 7.2 5 Norte 8 Norte 0 1021.3 -0.3 85
2019-02-15 01:00:00 6.9 2 Norte 6 Norte 0 1021.5 -0.4 84
2019-02-15 00:00:00 7.4 2 Noroeste 5 Noroeste 0 1021.7 -0.2 82
2019-02-14 23:00:00 8.3 4 Norte 10 Nordeste 0 1021.6 -0.2 79
2019-02-14 22:00:00 9.2 8 Nordeste 14 Nordeste 0 1021.9 0.3 76
2019-02-14 21:00:00 10.5 4 Norte 17 Nordeste 0 1021.9 0.3 74
2019-02-14 20:00:00 11.7 9 Este 20 Este 0 1021.8 -0.1 72
2019-02-14 19:00:00 12.1 10 Este 23 Este 0 1021.6 -0.6 70
2019-02-14 18:00:00 13 10 Este 24 Este 0 1021.6 -1.1 67
2019-02-14 17:00:00 14.2 11 Este 26 Este 0 1021.9 -1.3 64
2019-02-14 16:00:00 14.7 13 Este 25 Este 0 1022.2 -1.7 60
2019-02-14 15:00:00 15.7 9 Este 24 Este 0 1022.7 -2 54
2019-02-14 14:00:00 15.3 13 Este 23 Sudeste 0 1023.2 -1.5 54
2019-02-14 13:00:00 14.6 12 Este 28 Este 0 1023.9 -0.5 56
2019-02-14 12:00:00 14.3 13 Nordeste 25 Norte 0 1024.7 0.5 56
2019-02-14 11:00:00 13.4 10 Este 23 Este 0 1024.7 0.7 58
2019-02-14 10:00:00 11.9 5 Norte 14 Nordeste 0 1024.4 0.7 59
2019-02-14 09:00:00 10.5 6 Nordeste 13 Nordeste 0 1024.2 0.8 63
2019-02-14 08:00:00 10.2 5 Norte 11 Norte 0 1024 0.9 65
2019-02-14 07:00:00 10.2 3 Norte 10 Nordeste 0 1023.7 0.7 66
2019-02-14 06:00:00 10.1 5 Norte 10 Norte 0 1023.4 0.1 67
2019-02-14 05:00:00 10.1 5 Nordeste 11 Norte 0 1023.1 -0.2 68
2019-02-14 04:00:00 10.2 5 Norte 10 Nordeste 0 1023 -0.3 68
2019-02-14 03:00:00 10.3 6 Norte 11 Norte 0 1023.3 0 69
2019-02-14 02:00:00 10.2 4 Norte 10 Norte 0 1023.3 0 70
2019-02-14 01:00:00 9.9 5 Norte 11 Nordeste 0 1023.3 0.5 72
2019-02-14 00:00:00 9.7 5 Norte 8 Norte 0 1023.3 0.7 73
2019-02-13 23:00:00 9.9 3 Norte 9 Nordeste 0 1023.3 0.9 73
2019-02-13 22:00:00 9.5 5 Norte 9 Norte 0 1022.8 0.6 74
2019-02-13 21:00:00 9.6 5 Norte 7 Norte 0 1022.6 0.7 75
2019-02-13 20:00:00 11 3 Este 9 Este 0 1022.4 0.6 69
2019-02-13 19:00:00 12.2 7 Este 17 Este 0 1022.2 0.2 66
2019-02-13 18:00:00 13.2 8 Este 16 Sudeste 0 1021.9 -0.2 61
2019-02-13 17:00:00 14.6 6 Este 19 Sudeste 0 1021.8 -0.7 55
2019-02-13 16:00:00 14.9 11 Sudeste 22 Sudeste 0 1022 -1 57
2019-02-13 15:00:00 15.2 9 Sudeste 20 Sudeste 0 1022.1 -1.1 53
2019-02-13 14:00:00 15.4 9 Sudeste 21 Este 0 1022.5 -0.4 54
2019-02-13 13:00:00 15.4 8 Sudeste 18 Sudeste 0 1023 0.4 55
2019-02-13 12:00:00 15 7 Sur 15 Sudeste 0 1023.2 0.8 59
2019-02-13 11:00:00 13.6 5 Sudoeste 10 Sudoeste 0 1022.9 1.1 60
2019-02-13 10:00:00 10.3 4 Oeste 7 Noroeste 0 1022.6 1.1 63
2019-02-13 09:00:00 5.3 3 Oeste 10 Noroeste 0 1022.4 0.9 78
2019-02-13 08:00:00 4.5 5 Noroeste 9 Noroeste 0 1021.8 0.2 83
2019-02-13 07:00:00 4.9 4 Oeste 9 Noroeste 0 1021.5 -0.4 84
2019-02-13 06:00:00 5 4 Oeste 8 Oeste 0 1021.5 -0.8 85
2019-02-13 05:00:00 5.3 4 Noroeste 9 Noroeste 0 1021.6 -1 85
2019-02-13 04:00:00 5.8 4 Noroeste 9 Oeste 0 1021.9 -1 86
2019-02-13 03:00:00 6.4 4 Noroeste 9 Noroeste 0 1022.3 -0.8 85
2019-02-13 02:00:00 6.5 4 Oeste 8 Noroeste 0 1022.6 -0.9 86
2019-02-13 01:00:00 7.2 3 Noroeste 7 Oeste 0 1022.9 -0.5 87
2019-02-13 00:00:00 7.7 3 Oeste 6 Oeste 0 1023.1 -0.2 87
2019-02-12 23:00:00 8.5 3 Noroeste 6 Noroeste 0 1023.5 0.2 84
2019-02-12 22:00:00 9.6 3 Noroeste 6 Norte 0 1023.4 0.4 84
2019-02-12 21:00:00 10.5 4 Norte 6 Norte 0 1023.3 0.7 82
2019-02-12 20:00:00 11.4 2 Sudeste 7 Sudeste 0 1023.3 0.7 79
2019-02-12 19:00:00 12.2 4 Sudeste 12 Sudeste 0 1023 0.5 76
2019-02-12 18:00:00 13.2 6 Sudeste 16 Este 0 1022.6 0.1 72
2019-02-12 17:00:00 14.2 9 Sudeste 19 Sudeste 0 1022.6 0 67
2019-02-12 16:00:00 15.2 9 Sudeste 21 Sudeste 0 1022.5 -0.7 61
2019-02-12 15:00:00 16 9 Sudeste 21 Sudeste 0 1022.5 -1 58
2019-02-12 14:00:00 16.2 8 Sudeste 21 Sudeste 0 1022.6 -0.6 53
2019-02-12 13:00:00 15.9 9 Sudeste 20 Nordeste 0 1023.2 0.5 52
2019-02-12 12:00:00 15.1 10 Este 19 Nordeste 0 1023.5 1.4 53
2019-02-12 11:00:00 14.1 8 Este 17 Este 0 1023.2 1.6 57
2019-02-12 10:00:00 11.1 4 Nordeste 6 Norte 0 1022.7 1.7 62
2019-02-12 09:00:00 6.2 3 Noroeste 6 Noroeste 0 1022.1 1.4 78
2019-02-12 08:00:00 5.3 3 Noroeste 8 Norte 0 1021.6 1.2 80
2019-02-12 07:00:00 5.9 6 Norte 8 Norte 0 1021 0.3 79
2019-02-12 06:00:00 5.6 3 Noroeste 5 Noroeste 0 1020.7 0 85
2019-02-12 05:00:00 6.3 4 Noroeste 7 Norte 0 1020.4 -0.2 84
2019-02-12 04:00:00 6.9 5 Noroeste 7 Norte 0 1020.7 0.1 83
2019-02-12 03:00:00 7.8 6 Norte 10 Nordeste 0 1020.7 0.2 81
2019-02-12 02:00:00 7.7 2 Nordeste 4 Norte 0 1020.6 0.4 83
2019-02-12 01:00:00 8.9 4 Norte 8 Nordeste 0 1020.6 0.6 80
2019-02-12 00:00:00 9.9 3 Norte 9 Noroeste 0 1020.5 1.2 75
2019-02-11 23:00:00 10.2 4 Norte 10 Norte 0 1020.2 1.5 72
2019-02-11 22:00:00 11.2 5 Norte 11 Nordeste 0 1020 1.8 70
2019-02-11 21:00:00 12.4 7 Nordeste 18 Nordeste 0 1019.3 1.6 68
2019-02-11 20:00:00 12.6 9 Nordeste 19 Este 0 1018.7 1.2 71
2019-02-11 19:00:00 12.9 12 Este 27 Nordeste 0 1018.2 1.3 72
2019-02-11 18:00:00 13.7 12 Este 28 Este 0 1017.7 1.3 70
2019-02-11 17:00:00 14.7 13 Nordeste 27 Este 0 1017.5 1 60
2019-02-11 16:00:00 15.5 13 Este 24 Nordeste 0 1016.9 0 58
2019-02-11 15:00:00 16.8 14 Este 30 Nordeste 0 1016.4 -0.6 55
2019-02-11 14:00:00 17 9 Este 25 Nordeste 0 1016.5 -0.3 57
2019-02-11 13:00:00 16 12 Sudeste 24 Sudeste 0 1016.9 0.7 63
2019-02-11 12:00:00 15.9 12 Este 32 Nordeste 0 1017 1.5 66
2019-02-11 11:00:00 15.5 18 Nordeste 36 Este 0 1016.8 2.2 72
2019-02-11 10:00:00 15.8 4 Norte 13 Noroeste 0 1016.2 2.1 62
2019-02-11 09:00:00 12.6 5 Noroeste 15 Noroeste 0 1015.5 1.5 72
2019-02-11 08:00:00 12.2 5 Noroeste 17 Noroeste 0 1014.6 0.9 74
2019-02-11 07:00:00 11 5 Sudoeste 12 Sudoeste 0 1014.1 0.1 78
2019-02-11 06:00:00 11.6 3 Noroeste 12 Oeste 0 1014 0.3 73
2019-02-11 05:00:00 12.7 5 Noroeste 16 Noroeste 0 1013.7 0.1 69
2019-02-11 04:00:00 12.5 5 Noroeste 10 Oeste 0 1014 0.2 69
2019-02-11 03:00:00 13.3 4 Oeste 13 Oeste 0 1013.7 0.3 65
2019-02-11 02:00:00 13 6 Noroeste 15 Oeste 0 1013.6 0.6 65
2019-02-11 01:00:00 13.1 6 Noroeste 14 Nordeste 0 1013.8 1.1 63
2019-02-11 00:00:00 14.3 5 Sudeste 23 Noroeste 0 1013.4 0.8 58
2019-02-10 23:00:00 15.2 9 Noroeste 34 Noroeste 0 1013 1.3 54
2019-02-10 22:00:00 15.7 12 Noroeste 31 Oeste 0 1012.7 1.2 51
2019-02-10 21:00:00 15.9 10 Oeste 28 Noroeste 0 1012.6 1.4 50
2019-02-10 20:00:00 16 10 Oeste 23 Noroeste 0 1011.7 0.9 47
2019-02-10 19:00:00 16.6 10 Oeste 26 Sudoeste 0 1011.5 0.6 46
2019-02-10 18:00:00 17.6 11 Oeste 33 Oeste 0 1011.2 0.1 42
2019-02-10 17:00:00 18.4 13 Oeste 41 Oeste 0 1010.8 -0.4 40
2019-02-10 16:00:00 18.4 12 Oeste 36 Noroeste 0 1010.9 -1.2 40
2019-02-10 15:00:00 18.7 13 Oeste 32 Oeste 0 1011.1 -1.4 38
2019-02-10 14:00:00 17.9 11 Oeste 44 Noroeste 0 1011.2 -1.3 39
2019-02-10 13:00:00 18.2 13 Noroeste 40 Noroeste 0 1012.1 -0.1 36
2019-02-10 12:00:00 18.7 16 Noroeste 32 Noroeste 0 1012.5 0.6 33
2019-02-10 11:00:00 17.7 12 Oeste 32 Oeste 0 1012.5 1.3 33
2019-02-10 10:00:00 12.9 5 Noroeste 15 Noroeste 0 1012.2 1.3 43
2019-02-10 09:00:00 8.6 2 Oeste 8 Noroeste 0 1011.9 1.4 61
2019-02-10 08:00:00 6.8 4 Noroeste 9 Noroeste 0 1011.2 0.5 68
2019-02-10 07:00:00 6 4 Noroeste 10 Noroeste 0 1010.9 0 76
2019-02-10 06:00:00 6.4 4 Noroeste 8 Oeste 0 1010.5 -0.9 77
2019-02-10 05:00:00 6.6 3 Oeste 11 Noroeste 0 1010.7 -0.9 81
2019-02-10 04:00:00 6.6 3 Oeste 7 Noroeste 0 1010.9 -1.1 81
2019-02-10 03:00:00 7.2 3 Oeste 5 Norte 0 1011.4 -0.7 84
2019-02-10 02:00:00 7.6 0 Calma 4 Noroeste 0 1011.6 -0.7 82
2019-02-10 01:00:00 8 3 Noroeste 5 Oeste 0 1012 -0.2 78
2019-02-10 00:00:00 8.5 3 Noroeste 9 Noroeste 0 1012.1 -0.1 76
2019-02-09 23:00:00 9.2 3 Noroeste 5 Noroeste 0 1012.3 0.4 81
2019-02-09 22:00:00 10.4 3 Noroeste 6 Noroeste 0 1012.2 0.4 88
2019-02-09 21:00:00 11.5 0 Calma 8 Nordeste 0 1012.2 0.7 86
2019-02-09 20:00:00 12.7 3 Norte 10 Nordeste 0 1011.9 0.6 84
2019-02-09 19:00:00 14.2 5 Nordeste 9 Nordeste 0 1011.8 0.5 79
2019-02-09 18:00:00 16.1 4 Sudeste 10 Sudeste 0 1011.5 0 64
2019-02-09 17:00:00 18.7 5 Sudeste 15 Sudeste 0 1011.3 -0.7 55
2019-02-09 16:00:00 20.2 9 Sudeste 17 Sudeste 0 1011.3 -1.4 48
2019-02-09 15:00:00 20.5 11 Sudeste 18 Sudeste 0 1011.5 -1.7 44
2019-02-09 14:00:00 20.8 6 Sudeste 16 Sudeste 0 1012 -1 44
2019-02-09 13:00:00 21.1 9 Sudeste 15 Sudeste 0 1012.7 -0.2 36
2019-02-09 12:00:00 20.3 6 Sudoeste 11 Sur 0 1013.2 0.7 36
2019-02-09 11:00:00 17.3 6 Sur 9 Sur 0 1013 1 39
2019-02-09 10:00:00 13.4 0 Calma 5 Noroeste 0 1012.9 1.3 58
2019-02-09 09:00:00 6.5 2 Noroeste 6 Noroeste 0 1012.5 1.2 80
2019-02-09 08:00:00 5.4 3 Oeste 6 Norte 0 1012 0.8 79
2019-02-09 07:00:00 6.2 3 Noroeste 7 Oeste 0 1011.6 0.2 77
2019-02-09 06:00:00 6.2 4 Sudoeste 6 Noroeste 0 1011.3 -0.3 80
2019-02-09 05:00:00 6.5 4 Noroeste 7 Noroeste 0 1011.2 -0.4 81
2019-02-09 04:00:00 6.8 4 Oeste 6 Oeste 0 1011.4 -0.5 86
2019-02-09 03:00:00 7.8 3 Oeste 10 Noroeste 0 1011.6 -0.8 84
2019-02-09 02:00:00 7.4 3 Oeste 7 Noroeste 0 1011.6 -0.8 89
2019-02-09 01:00:00 8 4 Oeste 8 Noroeste 0 1011.9 -0.3 91
2019-02-09 00:00:00 8.4 4 Oeste 8 Oeste 0 1012.4 0.5 88
2019-02-08 23:00:00 8.9 3 Noroeste 5 Noroeste 0 1012.4 0.4 89
2019-02-08 22:00:00 10.2 3 Oeste 5 Oeste 0 1012.2 0.4 89
2019-02-08 21:00:00 11.4 3 Oeste 9 Sudoeste 0 1011.9 0.3 91
2019-02-08 20:00:00 12.2 4 Sudoeste 11 Oeste 0 1012 0.2 88
2019-02-08 19:00:00 13.1 5 Sudoeste 8 Sur 0 1011.8 -0.2 83
2019-02-08 18:00:00 14.6 4 Sur 12 Sudeste 0 1011.6 -0.7 74
2019-02-08 17:00:00 15.8 8 Sudeste 16 Sudeste 0 1011.8 -1.2 69
2019-02-08 16:00:00 16.8 9 Sudeste 17 Sudeste 0 1012 -1.7 67
2019-02-08 15:00:00 17.5 10 Sudeste 17 Sudeste 0 1012.3 -2.1 66
2019-02-08 14:00:00 17.5 7 Sudeste 14 Sudeste 0 1013 -1.6 65
2019-02-08 13:00:00 17.2 5 Sudeste 15 Sudeste 0 1013.7 -1 66
2019-02-08 12:00:00 16.6 5 Sudeste 10 Sudeste 0 1014.4 -0.1 67
2019-02-08 11:00:00 14.4 4 Nordeste 9 Norte 0 1014.6 0.7 73
2019-02-08 10:00:00 11 4 Norte 7 Norte 0 1014.7 1.2 71
2019-02-08 09:00:00 6.5 5 Norte 7 Norte 0 1014.5 1 80
2019-02-08 08:00:00 5.1 0 Calma 5 Noroeste 0 1013.9 0.3 84
2019-02-08 07:00:00 5.4 4 Noroeste 6 Noroeste 0 1013.5 -0.3 82
2019-02-08 06:00:00 5.8 2 Noroeste 6 Noroeste 0 1013.5 -0.6 80
2019-02-08 05:00:00 6.1 4 Noroeste 6 Noroeste 0 1013.6 -0.5 79
2019-02-08 04:00:00 6.5 3 Noroeste 6 Noroeste 0 1013.8 -0.5 78
2019-02-08 03:00:00 7.2 3 Noroeste 5 Noroeste 0 1014.1 0.2 78
2019-02-08 02:00:00 7.9 3 Noroeste 7 Noroeste 0 1014.1 0.6 75
2019-02-08 01:00:00 9.4 5 Norte 12 Norte 0 1014.3 1.3 68
2019-02-08 00:00:00 9.3 5 Noroeste 11 Norte 0 1013.9 1.3 71
2019-02-07 23:00:00 10.4 8 Norte 13 Norte 0 1013.5 1.1 69
2019-02-07 22:00:00 11.2 6 Norte 12 Norte 0 1013 1.2 68
2019-02-07 21:00:00 11.6 4 Norte 9 Norte 0 1012.6 1.5 74
2019-02-07 20:00:00 13 5 Norte 10 Nordeste 0 1012.4 1.6 79
2019-02-07 19:00:00 14.1 6 Nordeste 14 Nordeste 0 1011.8 1.2 77
2019-02-07 18:00:00 15.6 9 Nordeste 18 Este 0 1011.1 0.3 68
2019-02-07 17:00:00 17.5 8 Este 19 Nordeste 0 1010.8 -0.4 49
2019-02-07 16:00:00 18.5 11 Este 21 Nordeste 0 1010.6 -1.2 47
2019-02-07 15:00:00 18.6 10 Este 19 Este 0 1010.8 -1.5 49
2019-02-07 14:00:00 18.8 9 Este 19 Nordeste 0 1011.2 -0.8 48
2019-02-07 13:00:00 18.7 6 Este 15 Nordeste 0 1011.8 0 48
2019-02-07 12:00:00 16.7 6 Este 11 Este 0 1012.3 1 57
2019-02-07 11:00:00 16.6 5 Este 9 Nordeste 0 1012 1.2 62
2019-02-07 10:00:00 13.2 4 Este 7 Este 0 1011.8 1.1 79
2019-02-07 09:00:00 8.9 3 Norte 6 Nordeste 0 1011.3 0.5 73
2019-02-07 08:00:00 8.2 4 Noroeste 8 Oeste 0 1010.8 0 72
2019-02-07 07:00:00 7.9 3 Oeste 6 Oeste 0 1010.7 -0.6 74
2019-02-07 06:00:00 7.9 4 Oeste 7 Oeste 0 1010.8 -0.9 74
2019-02-07 05:00:00 8.6 5 Oeste 11 Sudoeste 0 1010.8 -1.1 70
2019-02-07 04:00:00 8.8 3 Sudeste 13 Noroeste 0 1011.3 -1.2 70
2019-02-07 03:00:00 8.8 3 Oeste 10 Oeste 0 1011.7 -1 71
2019-02-07 02:00:00 9.3 6 Oeste 10 Oeste 0 1011.9 -1 71
2019-02-07 01:00:00 9.4 4 Noroeste 12 Oeste 0 1012.5 -0.5 72
2019-02-07 00:00:00 9.1 3 Oeste 8 Noroeste 0 1012.7 -0.5 74
2019-02-06 23:00:00 9.1 3 Oeste 7 Noroeste 0 1012.9 -0.5 73
2019-02-06 22:00:00 9.7 3 Oeste 5 Oeste 0 1013 -0.5 73
2019-02-06 21:00:00 10.8 2 Noroeste 6 Norte 0 1013.2 0 72
2019-02-06 20:00:00 12 3 Norte 6 Norte 0 1013.4 0.3 70
2019-02-06 19:00:00 13.6 4 Noroeste 6 Sudoeste 0 1013.5 0.2 65
2019-02-06 18:00:00 15.6 4 Sur 14 Sur 0 1013.2 -0.6 59
2019-02-06 17:00:00 17.6 6 Sur 15 Sudeste 0 1013.1 -1.5 51
2019-02-06 16:00:00 18 10 Sudeste 16 Sudeste 0 1013.3 -2.2 52
2019-02-06 15:00:00 18.6 6 Sur 15 Sudeste 0 1013.8 -2.6 48
2019-02-06 14:00:00 19.2 8 Sudeste 13 Sudeste 0 1014.6 -1.9 39
2019-02-06 13:00:00 19 5 Sur 10 Sur 0 1015.5 -1 47
2019-02-06 12:00:00 18.1 4 Sudeste 12 Sudeste 0 1016.4 0.1 47
2019-02-06 11:00:00 15.6 2 Nordeste 6 Nordeste 0 1016.5 0.5 48
2019-02-06 10:00:00 12.3 3 Noroeste 5 Noroeste 0 1016.5 0.7 57
2019-02-06 09:00:00 6.6 4 Noroeste 5 Noroeste 0 1016.3 0.5 79
2019-02-06 08:00:00 6.1 4 Noroeste 8 Noroeste 0 1016 0.3 78
2019-02-06 07:00:00 5.9 4 Oeste 8 Oeste 0 1015.8 -0.1 78
2019-02-06 06:00:00 6.7 3 Noroeste 11 Noroeste 0 1015.8 -0.3 75
2019-02-06 05:00:00 7.3 4 Noroeste 9 Oeste 0 1015.7 -0.8 73
2019-02-06 04:00:00 6.3 4 Oeste 9 Oeste 0 1015.9 -0.7 76
2019-02-06 03:00:00 6.4 3 Noroeste 6 Noroeste 0 1016.1 -0.5 75
2019-02-06 02:00:00 6.7 2 Sudeste 3 Sudeste 0 1016.5 -0.2 74
2019-02-06 01:00:00 7.6 3 Oeste 6 Oeste 0 1016.6 -0.1 69
2019-02-06 00:00:00 7.7 3 Noroeste 6 Noroeste 0 1016.6 -0.1 69
2019-02-05 23:00:00 8.3 3 Noroeste 7 Oeste 0 1016.7 0.2 66
2019-02-05 22:00:00 9.1 2 Noroeste 9 Oeste 0 1016.7 0.4 66
2019-02-05 21:00:00 10.3 3 Noroeste 6 Norte 0 1016.7 0.6 65
2019-02-05 20:00:00 12 4 Noroeste 5 Norte 0 1016.5 0.5 63
2019-02-05 19:00:00 13.6 0 Calma 5 Sudeste 0 1016.3 0.6 56
2019-02-05 18:00:00 15.3 4 Sudeste 9 Sudeste 0 1016.1 0.2 49
2019-02-05 17:00:00 16.2 5 Sudeste 18 Sudeste 0 1016 -0.5 53
2019-02-05 16:00:00 16.6 10 Sudeste 17 Sudeste 0 1015.7 -1.4 53
2019-02-05 15:00:00 18.1 10 Sudeste 18 Sudeste 0 1015.9 -1.9 41
2019-02-05 14:00:00 18.7 9 Sudeste 17 Sudeste 0 1016.5 -1.4 38
2019-02-05 13:00:00 18.9 8 Sur 13 Sur 0 1017.1 -0.7 33
2019-02-05 12:00:00 17.5 6 Sur 12 Sur 0 1017.8 0.3 32
2019-02-05 11:00:00 14.1 5 Sudoeste 9 Oeste 0 1017.9 0.8 36
2019-02-05 10:00:00 11 3 Oeste 8 Noroeste 0 1017.8 0.9 46
2019-02-05 09:00:00 4.3 2 Noroeste 7 Noroeste 0 1017.5 0.8 63
2019-02-05 08:00:00 3.4 3 Noroeste 7 Noroeste 0 1017.1 0.6 66
2019-02-05 07:00:00 4 3 Noroeste 9 Oeste 0 1016.9 0.2 65
2019-02-05 06:00:00 3.8 3 Oeste 8 Noroeste 0 1016.7 -0.1 61
2019-02-05 05:00:00 3.4 3 Noroeste 7 Noroeste 0 1016.5 -0.6 64
2019-02-05 04:00:00 3.8 3 Oeste 6 Noroeste 0 1016.7 -0.7 64
2019-02-05 03:00:00 4.1 0 Calma 7 Noroeste 0 1016.8 -0.7 65
2019-02-05 02:00:00 4.4 4 Noroeste 6 Noroeste 0 1017.1 -0.6 65
2019-02-05 01:00:00 5.1 4 Noroeste 7 Oeste 0 1017.4 -0.4 61
2019-02-05 00:00:00 5.8 0 Calma 11 Noroeste 0 1017.5 -0.2 60
2019-02-04 23:00:00 6.3 3 Noroeste 8 Norte 0 1017.7 0.2 60
2019-02-04 22:00:00 7.8 6 Norte 12 Norte 0 1017.8 0.5 57
2019-02-04 21:00:00 8.4 8 Norte 12 Norte 0 1017.7 0.9 56
2019-02-04 20:00:00 9.1 3 Norte 8 Sur 0 1017.5 0.9 55
2019-02-04 19:00:00 11.1 5 Sudoeste 15 Sudeste 0 1017.3 1.1 50
2019-02-04 18:00:00 12.7 8 Sudeste 15 Sudeste 0 1016.8 0.5 44
2019-02-04 17:00:00 14.5 8 Sudeste 17 Sudeste 0 1016.6 -0.3 38
2019-02-04 16:00:00 15.7 6 Sudeste 17 Sudeste 0 1016.2 -1.5 31
2019-02-04 15:00:00 15.3 9 Sudeste 16 Sudeste 0 1016.3 -2 28
2019-02-04 14:00:00 15.8 7 Sudeste 14 Sur 0 1016.9 -1 23
2019-02-04 13:00:00 14.9 6 Sur 15 Sur 0 1017.7 -0.1 24
2019-02-04 12:00:00 13.8 3 Sudoeste 10 Sudoeste 0 1018.3 0.8 20
2019-02-04 11:00:00 11.4 4 Norte 12 Noroeste 0 1017.9 0.7 26
2019-02-04 10:00:00 8.7 5 Noroeste 11 Noroeste 0 1017.8 1.2 34
2019-02-04 09:00:00 3.8 5 Oeste 10 Oeste 0 1017.5 0.9 45
2019-02-04 08:00:00 3.7 4 Sur 12 Oeste 0 1017.2 0.8 47
2019-02-04 07:00:00 5 5 Noroeste 23 Noroeste 0 1016.6 0.2 43
2019-02-04 06:00:00 6.2 11 Noroeste 26 Noroeste 0 1016.6 0.3 39
2019-02-04 05:00:00 6 8 Noroeste 17 Noroeste 0 1016.4 0.2 40
2019-02-04 04:00:00 6.3 7 Noroeste 22 Oeste 0 1016.4 -0.2 39
2019-02-04 03:00:00 6.6 11 Noroeste 21 Noroeste 0 1016.3 0.2 38
2019-02-04 02:00:00 6.6 9 Noroeste 19 Noroeste 0 1016.2 0.4 39
2019-02-04 01:00:00 7.4 9 Noroeste 20 Noroeste 0 1016.6 1.5 38
2019-02-04 00:00:00 6.8 9 Noroeste 19 Noroeste 0 1016.1 1.9 38
2019-02-03 23:00:00 6.4 2 Sur 14 Norte 0 1015.8 2.2 37
2019-02-03 22:00:00 7.8 5 Norte 10 Nordeste 0 1015.1 2.6 31
2019-02-03 21:00:00 9.8 5 Noroeste 29 Norte 0 1014.2 2.6 27
2019-02-03 20:00:00 10.4 11 Norte 30 Norte 0 1013.6 2.7 25
2019-02-03 19:00:00 11 9 Norte 32 Norte 0 1012.5 1.8 23
2019-02-03 18:00:00 12.2 19 Noroeste 56 Norte 0 1011.6 1.9 21
2019-02-03 17:00:00 13.5 21 Noroeste 49 Noroeste 0 1010.9 0.7 19
2019-02-03 16:00:00 14.1 19 Noroeste 54 Noroeste 0 1010.7 0.6 21
2019-02-03 15:00:00 14.4 17 Noroeste 53 Noroeste 0 1009.7 -1.1 19
2019-02-03 14:00:00 14.1 19 Noroeste 45 Noroeste 0 1010.2 -0.9 20
2019-02-03 13:00:00 12.9 13 Noroeste 38 Noroeste 0 1010.1 -0.3 25
2019-02-03 12:00:00 11.8 9 Noroeste 55 Norte 0 1010.8 1.3 27
2019-02-03 11:00:00 9.9 13 Noroeste 36 Noroeste 0 1011.1 2.4 32
2019-02-03 10:00:00 9.2 9 Noroeste 36 Norte 0 1010.4 2.6 33
2019-02-03 09:00:00 7.4 7 Oeste 48 Norte 0 1009.5 3.1 36
2019-02-03 08:00:00 6.9 12 Oeste 32 Noroeste 0 1008.7 2.8 40
2019-02-03 07:00:00 7.7 10 Oeste 41 Noroeste 0 1007.8 2.3 36
2019-02-03 06:00:00 8.1 15 Noroeste 57 Noroeste 0 1006.4 1 36
2019-02-03 05:00:00 8.1 18 Noroeste 55 Noroeste 0 1005.9 0.7 37
2019-02-03 04:00:00 8.6 24 Noroeste 60 Noroeste 0 1005.5 1.1 36
2019-02-03 03:00:00 8.4 18 Noroeste 58 Noroeste 0 1005.4 1.7 36
2019-02-03 02:00:00 8.9 27 Noroeste 58 Noroeste 0 1005.2 1.8 34
2019-02-03 01:00:00 9.1 22 Noroeste 57 Noroeste 0 1004.4 1.4 32
2019-02-03 00:00:00 9.4 23 Noroeste 62 Noroeste 0 1003.7 1 29
2019-02-02 23:00:00 9.7 24 Noroeste 57 Noroeste 0 1003.4 1.4 31
2019-02-02 22:00:00 10.1 13 Noroeste 44 Oeste 0 1003 2.5 29
2019-02-02 21:00:00 10.8 14 Noroeste 43 Noroeste 0 1002.7 3.6 26
2019-02-02 20:00:00 11.4 12 Noroeste 43 Noroeste 0 1002 3.9 25
2019-02-02 19:00:00 11.9 18 Noroeste 44 Noroeste 0 1000.5 3.1 25
2019-02-02 18:00:00 12.8 16 Noroeste 45 Noroeste 0 999.1 3.2 26
2019-02-02 17:00:00 13.6 24 Noroeste 51 Noroeste 0 998.1 2.8 24
2019-02-02 16:00:00 14.2 17 Oeste 42 Noroeste 0 997.4 2 29
2019-02-02 15:00:00 14.3 20 Noroeste 50 Noroeste 0 995.9 0.8 31
2019-02-02 14:00:00 13.2 19 Noroeste 48 Noroeste 0 995.3 0.9 32
2019-02-02 13:00:00 15 19 Oeste 53 Oeste 0 995.4 2 31
2019-02-02 12:00:00 13.7 17 Oeste 48 Oeste 0 995.1 2.6 35
2019-02-02 11:00:00 11.9 20 Oeste 44 Oeste 0 994.4 3.3 39
2019-02-02 10:00:00 11.6 17 Oeste 51 Oeste 0 993.4 2.5 41
2019-02-02 09:00:00 10.1 18 Oeste 54 Noroeste 0 992.5 2.2 47
2019-02-02 08:00:00 10.1 20 Oeste 43 Oeste 0 991.1 0.7 45
2019-02-02 07:00:00 10.2 12 Oeste 37 Noroeste 0 990.9 1.2 44
2019-02-02 06:00:00 10.6 13 Oeste 36 Oeste 0 990.3 1.3 41
2019-02-02 05:00:00 10.7 13 Noroeste 37 Noroeste 0 990.4 1.5 41
2019-02-02 04:00:00 10.7 10 Oeste 36 Oeste 0 989.7 0.7 43
2019-02-02 03:00:00 10.6 14 Oeste 42 Noroeste 0 989 0.4 47
2019-02-02 02:00:00 10.6 16 Oeste 40 Oeste 0 988.9 0.7 48
2019-02-02 01:00:00 10.6 9 Oeste 38 Oeste 0 989 0.9 47
2019-02-02 00:00:00 11.2 17 Sudoeste 42 Sudoeste 0 988.6 0.4 46
2019-02-01 23:00:00 11.4 13 Oeste 33 Sudoeste 0 988.2 1.4 51
2019-02-01 22:00:00 11.9 17 Sudoeste 38 Sudoeste 0 988.1 1.9 53
2019-02-01 21:00:00 12.8 19 Oeste 40 Oeste 0 988.2 2.3 55
2019-02-01 20:00:00 13.4 9 Oeste 37 Sudoeste 0 986.8 0.8 42
2019-02-01 19:00:00 14.8 18 Oeste 40 Sudoeste 0 986.2 0.5 37
2019-02-01 18:00:00 15.8 9 Oeste 33 Oeste 0 985.9 0.2 34
2019-02-01 17:00:00 17.6 15 Oeste 35 Oeste 0 986 0.8 30
2019-02-01 16:00:00 18.9 15 Oeste 41 Oeste 0 985.7 -0.7 29
2019-02-01 15:00:00 19.7 14 Oeste 42 Oeste 0 985.7 -0.9 31
2019-02-01 14:00:00 19 18 Oeste 42 Noroeste 0 985.2 -1.3 35
2019-02-01 13:00:00 16.8 10 Oeste 30 Noroeste 0.4 986.4 -1.2 66
2019-02-01 12:00:00 16.8 6 Sudoeste 17 Sur 0 986.6 -0.2 70
2019-02-01 11:00:00 15.7 7 Sudoeste 15 Sur 0 986.5 0.1 77
2019-02-01 10:00:00 13.7 6 Noroeste 13 Sudoeste 0.2 987.6 0.9 85
2019-02-01 09:00:00 13.7 4 Noroeste 18 Sudoeste 0 986.8 -0.5 81
2019-02-01 08:00:00 13.8 10 Sudoeste 24 Sudoeste 0 986.4 -1.8 80
2019-02-01 07:00:00 13.7 8 Sudoeste 25 Sudoeste 0 986.7 -2.4 77
2019-02-01 06:00:00 14 9 Sudoeste 28 Sudoeste 0 987.3 -2.8 72
2019-02-01 05:00:00 13.1 2 Oeste 8 Sudoeste 0 988.2 -2.5 69
2019-02-01 04:00:00 13.3 4 Sudoeste 10 Sur 0 989.1 -2.8 66
2019-02-01 03:00:00 13.1 3 Sur 9 Sur 0 990.1 -2.2 65
2019-02-01 02:00:00 13.6 7 Sudeste 13 Sur 0 990.7 -2 62
2019-02-01 01:00:00 13.3 6 Sudeste 13 Sur 0 991.9 -1.5 62
2019-02-01 00:00:00 13.9 5 Sudoeste 19 Sur 0 992.3 -1.1 59
2019-01-31 23:00:00 15.1 11 Sur 20 Sudoeste 0 992.7 -1 55
2019-01-31 22:00:00 15.4 6 Sudoeste 12 Oeste 0 993.4 0 54
2019-01-31 21:00:00 16.7 6 Sudoeste 20 Sudoeste 0 993.4 0.3 49
2019-01-31 20:00:00 17.5 9 Sudoeste 32 Sudoeste 0 993.7 1.4 47
2019-01-31 19:00:00 18.2 11 Sudoeste 46 Oeste 0 993.4 0.6 46
2019-01-31 18:00:00 19.5 16 Oeste 35 Oeste 0 993.1 0 43
2019-01-31 17:00:00 20.9 18 Oeste 38 Oeste 0 992.3 -1.4 39
2019-01-31 16:00:00 21.2 17 Oeste 40 Oeste 0 992.8 -2 38
2019-01-31 15:00:00 18.9 12 Sudoeste 31 Sudoeste 0 993.1 -2.5 49
2019-01-31 14:00:00 17.2 14 Sudoeste 29 Sudoeste 0 993.7 -1.4 53
2019-01-31 13:00:00 16 12 Sudoeste 28 Sudoeste 0 994.8 -0.1 55
2019-01-31 12:00:00 15.4 12 Sur 23 Sudoeste 0 995.6 0.6 55
2019-01-31 11:00:00 13.9 8 Sudeste 21 Sudeste 0 995.1 0.3 57
2019-01-31 10:00:00 13.8 10 Sur 22 Sudoeste 0 994.9 0 56
2019-01-31 09:00:00 12.7 9 Sudoeste 23 Sudoeste 0 995 -0.2 58
2019-01-31 08:00:00 12.7 14 Sudoeste 27 Sur 0 994.8 -0.9 57
2019-01-31 07:00:00 11.7 6 Sudoeste 16 Sudoeste 0 994.9 -1.3 60
2019-01-31 06:00:00 11.6 5 Sudoeste 15 Oeste 0 995.2 -2 58
2019-01-31 05:00:00 12 5 Sudoeste 17 Sudoeste 0 995.7 -2.1 55
2019-01-31 04:00:00 11.9 8 Sudoeste 17 Sudoeste 0 996.2 -2.4 54
2019-01-31 03:00:00 12.2 6 Sudoeste 17 Sudoeste 0 997.2 -1.8 52
2019-01-31 02:00:00 12.4 8 Sudoeste 15 Sudoeste 0 997.8 -1.5 50
2019-01-31 01:00:00 13.3 6 Sudoeste 33 Sudoeste 0 998.6 -0.9 48
2019-01-31 00:00:00 13.6 10 Oeste 25 Oeste 0 999 -1 48
2019-01-30 23:00:00 13.6 13 Oeste 31 Sudoeste 0 999.3 -1.1 45
2019-01-30 22:00:00 13.2 11 Sudoeste 24 Sudoeste 0 999.5 -0.6 43
2019-01-30 21:00:00 12.8 4 Sudoeste 9 Oeste 0 1000 0 43
2019-01-30 20:00:00 13.3 4 Sudoeste 18 Sudoeste 0 1000.4 0.1 40
2019-01-30 19:00:00 14 5 Sudoeste 17 Sudoeste 0 1000.1 -0.1 39
2019-01-30 18:00:00 15.2 9 Oeste 24 Oeste 0 1000 -1.1 36
2019-01-30 17:00:00 16.3 12 Oeste 31 Oeste 0 1000.3 -1.4 32
2019-01-30 16:00:00 17.5 13 Oeste 33 Oeste 0 1000.2 -2.5 32
2019-01-30 15:00:00 17.2 16 Oeste 34 Noroeste 0 1001.1 -1.9 33
2019-01-30 14:00:00 17 16 Oeste 35 Noroeste 0 1001.7 -1.2 35
2019-01-30 13:00:00 16.6 16 Oeste 40 Oeste 0 1002.7 0 36
2019-01-30 12:00:00 16.1 13 Noroeste 32 Oeste 0 1003 0.8 39
2019-01-30 11:00:00 14.9 13 Oeste 33 Noroeste 0 1002.9 1.2 44
2019-01-30 10:00:00 13.4 12 Noroeste 31 Noroeste 0 1002.7 1.5 50
2019-01-30 09:00:00 12.7 6 Oeste 18 Oeste 0 1002.2 1.2 55
2019-01-30 08:00:00 13 5 Noroeste 14 Oeste 0 1001.7 0.6 57
2019-01-30 07:00:00 13.7 8 Noroeste 27 Oeste 0 1001.2 0.1 53
2019-01-30 06:00:00 14.1 15 Oeste 36 Oeste 0 1001 0.5 50
2019-01-30 05:00:00 14.1 8 Oeste 24 Oeste 0 1001.1 0.5 51
2019-01-30 04:00:00 14.4 8 Oeste 40 Oeste 0 1001.1 0.4 50
2019-01-30 03:00:00 14.3 16 Oeste 37 Noroeste 0 1000.5 -0.1 53
2019-01-30 02:00:00 14.1 10 Oeste 34 Oeste 0 1000.6 0 52
2019-01-30 01:00:00 14.8 13 Oeste 40 Oeste 0 1000.7 0.6 49
2019-01-30 00:00:00 15.3 19 Oeste 45 Oeste 0 1000.6 0.9 49
2019-01-29 23:00:00 14.7 10 Oeste 27 Oeste 0 1000.6 0.8 49
2019-01-29 22:00:00 14 12 Oeste 33 Oeste 0 1000.1 0.6 51
2019-01-29 21:00:00 14.4 16 Oeste 40 Oeste 0 999.7 0 49
2019-01-29 20:00:00 14.7 17 Oeste 47 Oeste 0 999.8 -1.5 47
2019-01-29 19:00:00 15 19 Oeste 53 Oeste 0 999.5 -1.7 46
2019-01-29 18:00:00 15.5 25 Oeste 50 Oeste 0 999.7 -1.5 44
2019-01-29 17:00:00 16.1 16 Oeste 38 Noroeste 0 1001.3 -1.8 42
2019-01-29 16:00:00 17.3 10 Noroeste 25 Noroeste 0 1001.2 -2.6 41
2019-01-29 15:00:00 18.1 9 Sudoeste 24 Noroeste 0 1001.2 -4 39
2019-01-29 14:00:00 15.2 8 Oeste 26 Noroeste 0 1003.1 -2.3 45
2019-01-29 13:00:00 15.2 9 Oeste 32 Noroeste 0 1003.8 -2.6 43
2019-01-29 12:00:00 15.9 14 Oeste 31 Noroeste 0 1005.2 -1 40
2019-01-29 11:00:00 13 8 Oeste 35 Noroeste 0 1005.4 -0.3 50
2019-01-29 10:00:00 12 17 Noroeste 37 Noroeste 0 1006.4 0.8 54
2019-01-29 09:00:00 11.2 11 Noroeste 28 Oeste 0 1006.2 1.1 57
2019-01-29 08:00:00 10.5 6 Noroeste 27 Noroeste 0 1005.7 0.5 57
2019-01-29 07:00:00 10.7 11 Oeste 24 Oeste 0 1005.6 -0.2 56
2019-01-29 06:00:00 10.9 8 Noroeste 30 Noroeste 0 1005.1 -0.5 56
2019-01-29 05:00:00 10.9 9 Noroeste 21 Noroeste 0 1005.2 -0.5 57
2019-01-29 04:00:00 10.7 6 Noroeste 15 Oeste 0 1005.8 0.3 58
2019-01-29 03:00:00 11.6 5 Sudeste 12 Sur 0 1005.6 0.3 55
2019-01-29 02:00:00 12.5 4 Sur 26 Oeste 0 1005.7 0.5 53
2019-01-29 01:00:00 13.7 9 Noroeste 39 Noroeste 0 1005.5 0.4 50
2019-01-29 00:00:00 14.4 15 Oeste 42 Noroeste 0 1005.3 0.5 48
2019-01-28 23:00:00 14.8 15 Oeste 36 Noroeste 0 1005.2 1 46
2019-01-28 22:00:00 15 13 Noroeste 40 Noroeste 0 1005.1 1.4 42
2019-01-28 21:00:00 15.6 14 Noroeste 32 Oeste 0 1004.8 1.6 38
2019-01-28 20:00:00 15.8 11 Oeste 28 Oeste 0 1004.2 1.4 35
2019-01-28 19:00:00 16.1 7 Noroeste 27 Noroeste 0 1003.7 1.4 30
2019-01-28 18:00:00 17.2 13 Noroeste 41 Oeste 0 1003.2 0.9 29
2019-01-28 17:00:00 18.4 13 Noroeste 48 Noroeste 0 1002.8 0 26
2019-01-28 16:00:00 19.5 16 Oeste 51 Oeste 0 1002.3 -1.6 24
2019-01-28 15:00:00 19.4 15 Oeste 39 Oeste 0 1002.3 -2.7 27
2019-01-28 14:00:00 18.3 15 Oeste 35 Noroeste 0 1002.8 -2 28
2019-01-28 13:00:00 16.8 14 Oeste 34 Oeste 0 1003.9 -1.4 31
2019-01-28 12:00:00 15.9 16 Oeste 40 Sudoeste 0 1005 -0.9 33
2019-01-28 11:00:00 13.8 18 Oeste 46 Oeste 0 1004.8 -0.8 36
2019-01-28 10:00:00 12 18 Oeste 40 Oeste 0 1005.3 -0.1 40
2019-01-28 09:00:00 10.3 12 Oeste 32 Oeste 0 1005.9 0.3 44
2019-01-28 08:00:00 10 14 Oeste 36 Oeste 0 1005.6 -0.2 45
2019-01-28 07:00:00 9.4 13 Oeste 28 Noroeste 0 1005.4 -0.3 47
2019-01-28 06:00:00 9.5 11 Noroeste 36 Noroeste 0 1005.6 -0.2 48
2019-01-28 05:00:00 10.1 15 Noroeste 32 Oeste 0 1005.8 -0.4 44
2019-01-28 04:00:00 10.3 6 Oeste 22 Oeste 0 1005.7 -0.4 41
2019-01-28 03:00:00 10 5 Oeste 11 Oeste 0 1005.8 -0.2 42
2019-01-28 02:00:00 11.2 6 Oeste 16 Sudoeste 0 1006.2 0.6 38
2019-01-28 01:00:00 11.8 4 Oeste 22 Noroeste 0 1006.1 1.2 36
2019-01-28 00:00:00 12.3 3 Sudoeste 22 Noroeste 0 1006 1.3 36
2019-01-27 23:00:00 13.7 10 Noroeste 28 Noroeste 0 1005.6 1.6 29
2019-01-27 22:00:00 14.5 15 Noroeste 34 Noroeste 0 1004.9 2.1 28
2019-01-27 21:00:00 14.2 7 Noroeste 25 Noroeste 0 1004.7 2.6 31
2019-01-27 20:00:00 14.9 10 Oeste 30 Oeste 0 1004 2.7 32
2019-01-27 19:00:00 15.7 15 Noroeste 45 Noroeste 0 1002.8 1.5 33
2019-01-27 18:00:00 16.6 10 Noroeste 33 Oeste 0 1002.1 0.7 32
2019-01-27 17:00:00 17.9 15 Oeste 41 Oeste 0 1001.3 0.2 32
2019-01-27 16:00:00 18.5 15 Noroeste 42 Noroeste 0 1001.3 0 33
2019-01-27 15:00:00 18.9 17 Noroeste 39 Noroeste 0 1001.4 0.1 34
2019-01-27 14:00:00 18.3 12 Oeste 51 Oeste 0 1001.1 0 37
2019-01-27 13:00:00 19.5 16 Oeste 39 Noroeste 0 1001.3 0.5 34
2019-01-27 12:00:00 18.7 17 Noroeste 41 Oeste 0 1001.3 0.7 36
2019-01-27 11:00:00 16.9 21 Noroeste 42 Noroeste 0 1001.1 0.8 43
2019-01-27 10:00:00 15.4 14 Noroeste 33 Noroeste 0 1000.8 0.2 49
2019-01-27 09:00:00 15.4 16 Oeste 47 Noroeste 0 1000.6 -0.1 43
2019-01-27 08:00:00 16 16 Oeste 42 Oeste 0 1000.3 -1 38
2019-01-27 07:00:00 15.2 13 Oeste 36 Oeste 0 1000.6 -1.5 41
2019-01-27 06:00:00 15 17 Oeste 36 Oeste 0 1000.7 -2.2 39
2019-01-27 05:00:00 14.7 13 Oeste 30 Oeste 0 1001.3 -2.4 37
2019-01-27 04:00:00 15.2 15 Oeste 36 Noroeste 0 1002.1 -2.4 40
2019-01-27 03:00:00 15.6 18 Oeste 42 Noroeste 0 1002.9 -2.4 39
2019-01-27 02:00:00 9.9 3 Noroeste 12 Sudoeste 0 1003.7 -1.9 56
2019-01-27 01:00:00 10.1 6 Oeste 14 Oeste 0 1004.5 -1.6 58
2019-01-27 00:00:00 9.2 5 Norte 10 Sudoeste 0 1005.3 -1.2 73
2019-01-26 23:00:00 9.1 5 Sudoeste 9 Oeste 0 1005.6 -1.3 85
2019-01-26 22:00:00 9.4 4 Sudoeste 9 Sudoeste 0 1006.1 -0.9 84
2019-01-26 21:00:00 10.5 4 Oeste 7 Noroeste 0 1006.5 -0.8 78
2019-01-26 20:00:00 12 2 Oeste 14 Sudoeste 0 1006.9 -0.7 82
2019-01-26 19:00:00 13.4 6 Sudoeste 17 Sudoeste 0 1007 -0.9 78
2019-01-26 18:00:00 14.7 8 Sur 23 Sur 0 1007.3 -1.2 69
2019-01-26 17:00:00 16.5 14 Sur 26 Sur 0 1007.6 -1.6 57
2019-01-26 16:00:00 18 15 Sur 26 Sur 0 1007.9 -2.2 49
2019-01-26 15:00:00 19.5 12 Sudoeste 26 Sudoeste 0 1008.5 -2.5 43
2019-01-26 14:00:00 19.4 11 Sudoeste 24 Sur 0 1009.2 -1.7 39
2019-01-26 13:00:00 18.7 12 Sur 21 Sudoeste 0 1010.1 -0.6 38
2019-01-26 12:00:00 17.9 9 Sudoeste 21 Sudoeste 0 1011 0.6 40
2019-01-26 11:00:00 14.5 5 Sudoeste 8 Sur 0 1010.9 1.1 49
2019-01-26 10:00:00 11.4 3 Noroeste 13 Oeste 0 1010.7 1.6 58
2019-01-26 09:00:00 8.1 4 Oeste 13 Noroeste 0 1010.4 1.4 66
2019-01-26 08:00:00 7.9 6 Noroeste 12 Noroeste 0 1009.8 1.3 66
2019-01-26 07:00:00 7.7 4 Noroeste 10 Noroeste 0 1009.1 1 66
2019-01-26 06:00:00 8.6 4 Noroeste 14 Noroeste 0 1009 1.2 63
2019-01-26 05:00:00 8.4 3 Noroeste 7 Noroeste 0 1008.5 1.5 62
2019-01-26 04:00:00 9.7 3 Noroeste 9 Nordeste 0 1008.1 1 60
2019-01-26 03:00:00 11.5 7 Norte 12 Norte 0 1007.8 1.1 53
2019-01-26 02:00:00 12.9 4 Norte 19 Norte 0 1007 0.7 49
2019-01-26 01:00:00 14.3 10 Noroeste 21 Noroeste 0 1007.1 1.2 45
2019-01-26 00:00:00 14.6 6 Noroeste 19 Norte 0 1006.7 1.1 46
2019-01-25 23:00:00 12.9 5 Norte 12 Norte 0 1006.3 1.2 53
2019-01-25 22:00:00 13.5 4 Oeste 11 Oeste 0 1005.9 1.3 52
2019-01-25 21:00:00 13.6 3 Oeste 9 Noroeste 0 1005.6 1.5 55
2019-01-25 20:00:00 14.7 3 Noroeste 6 Nordeste 0 1005.1 1.2 56
2019-01-25 19:00:00 17.2 5 Nordeste 20 Norte 0 1004.6 1.1 44
2019-01-25 18:00:00 19 9 Noroeste 25 Norte 0 1004.1 0.5 36
2019-01-25 17:00:00 20.6 8 Noroeste 28 Noroeste 0 1003.9 -0.2 34
2019-01-25 16:00:00 21.8 8 Noroeste 26 Norte 0 1003.5 -0.8 31
2019-01-25 15:00:00 21.6 13 Noroeste 29 Noroeste 0 1003.6 -1 33
2019-01-25 14:00:00 20.9 12 Noroeste 29 Noroeste 0 1004.1 -0.7 34
2019-01-25 13:00:00 20.3 15 Noroeste 31 Norte 0 1004.3 -0.3 36
2019-01-25 12:00:00 18.6 10 Oeste 24 Oeste 0 1004.6 0.6 41
2019-01-25 11:00:00 15.8 6 Sudoeste 19 Sudoeste 0 1004.8 1.3 48
2019-01-25 10:00:00 13.8 7 Sudoeste 15 Sur 0 1004.6 1.4 53
2019-01-25 09:00:00 12.3 6 Oeste 26 Noroeste 0 1004 1.3 55
2019-01-25 08:00:00 13.1 10 Noroeste 30 Noroeste 0 1003.5 0.8 51
2019-01-25 07:00:00 13.1 12 Noroeste 32 Noroeste 0 1003.2 0.3 52
2019-01-25 06:00:00 12.9 8 Noroeste 22 Noroeste 0 1002.7 -0.4 52
2019-01-25 05:00:00 12.2 8 Oeste 17 Oeste 0 1002.7 -0.3 55
2019-01-25 04:00:00 12 6 Oeste 13 Sudoeste 0 1002.9 0.3 53
2019-01-25 03:00:00 11.4 5 Sudoeste 12 Sudoeste 0 1003.1 0.5 55
2019-01-25 02:00:00 13.8 8 Noroeste 38 Noroeste 0 1003 0.6 45
2019-01-25 01:00:00 13.7 15 Noroeste 35 Noroeste 0 1002.6 0.6 45
2019-01-25 00:00:00 13.6 7 Noroeste 32 Noroeste 0 1002.6 1.2 43
2019-01-24 23:00:00 14.2 14 Noroeste 28 Noroeste 0 1002.4 1.4 42
2019-01-24 22:00:00 14 10 Noroeste 32 Noroeste 0 1002 2 42
2019-01-24 21:00:00 14.4 16 Noroeste 40 Noroeste 0 1001.4 1.8 41
2019-01-24 20:00:00 14.6 17 Noroeste 35 Noroeste 0 1001 1.9 41
2019-01-24 19:00:00 14.9 15 Noroeste 26 Noroeste 0 1000 1.4 40
2019-01-24 18:00:00 14.1 3 Noroeste 13 Noroeste 0 999.6 1.1 43
2019-01-24 17:00:00 14.8 2 Este 15 Nordeste 0 999.1 1.1 41
2019-01-24 16:00:00 15.2 8 Nordeste 18 Nordeste 0 998.6 0.4 38
2019-01-24 15:00:00 15.3 10 Nordeste 19 Nordeste 0 998.5 0.4 39
2019-01-24 14:00:00 14.6 3 Este 19 Noroeste 0 998 0.3 45
2019-01-24 13:00:00 14.7 9 Este 28 Noroeste 0 998.2 1.7 47
2019-01-24 12:00:00 14.9 9 Noroeste 26 Noroeste 0 998.1 2.2 46
2019-01-24 11:00:00 13.6 5 Sudeste 21 Nordeste 0 997.7 2.9 60
2019-01-24 10:00:00 15 13 Norte 26 Nordeste 0 996.5 2.5 54
2019-01-24 09:00:00 15.2 14 Noroeste 39 Noroeste 0 995.9 2.4 46
2019-01-24 08:00:00 15.5 15 Noroeste 48 Norte 0 994.8 1.4 44
2019-01-24 07:00:00 15.7 16 Noroeste 45 Noroeste 0 994 0.4 43
2019-01-24 06:00:00 15.5 8 Noroeste 34 Norte 0 993.5 0.2 43
2019-01-24 05:00:00 15.4 9 Oeste 26 Sudoeste 0 993.4 0.2 45
2019-01-24 04:00:00 15.3 6 Oeste 27 Sudoeste 0 993.6 -0.4 48
2019-01-24 03:00:00 15.7 12 Oeste 44 Sudoeste 0 993.3 -0.6 47
2019-01-24 02:00:00 15.9 20 Oeste 43 Oeste 0 993.2 0.3 47
2019-01-24 01:00:00 16.3 18 Oeste 46 Oeste 0 994 0.8 46
2019-01-24 00:00:00 16.3 15 Oeste 44 Sudoeste 0 993.9 0.4 46